Time;durP1;ratioP1;P1;durP2;ratioP2;P2;SDS_P1;SDS_P2;PMS_P1;PMS_P2;Temp;Humidity;BMP_temperature;BMP_pressure;BME280_temperature;BME280_humidity;BME280_pressure;Samples;Min_cycle;Max_cycle;Signal;HPM_P1;HPM_P2
2021/09/29 00:01:02;;;;;;;12.68;4.40;;;;;;;;;;4934715;28;20034;-61
2021/09/29 00:03:30;;;;;;;13.95;4.82;;;;;;;;;;4960511;28;21100;-60
2021/09/29 00:05:55;;;;;;;11.98;4.63;;;;;;;;;;4934429;28;20042;-60
2021/09/29 00:08:26;;;;;;;11.07;4.70;;;;;;;;;;4948247;28;20041;-60
2021/09/29 00:10:54;;;;;;;14.73;5.07;;;;;;;;;;4941879;28;20100;-61
2021/09/29 00:13:24;;;;;;;10.27;4.93;;;;;;;;;;4958531;28;20045;-61
2021/09/29 00:15:52;;;;;;;16.77;5.32;;;;;;;;;;4952479;28;20192;-60
2021/09/29 00:18:18;;;;;;;9.93;5.18;;;;;;;;;;4958363;28;20375;-62
2021/09/29 00:20:43;;;;;;;21.80;5.32;;;;;;;;;;4945819;28;20046;-62
2021/09/29 00:23:11;;;;;;;12.07;4.63;;;;;;;;;;4942641;28;20050;-61
2021/09/29 00:25:41;;;;;;;6.90;4.88;;;;;;;;;;4949798;28;20639;-60
2021/09/29 00:28:07;;;;;;;10.77;4.45;;;;;;;;;;4946988;28;20565;-61
2021/09/29 00:31:12;;;;;;;15.07;4.55;;;;;;;;;;4952259;28;20034;-61
2021/09/29 00:33:31;;;;;;;11.50;4.05;;;;;;;;;;4946432;28;20149;-62
2021/09/29 00:36:01;;;;;;;12.98;4.45;;;;;;;;;;4950133;28;20129;-61
2021/09/29 00:38:31;;;;;;;24.23;4.63;;;;;;;;;;4915427;28;20550;-61
2021/09/29 00:40:57;;;;;;;18.30;4.55;;;;;;;;;;4925198;28;20563;-63
2021/09/29 00:43:27;;;;;;;11.98;4.97;;;;;;;;;;4951983;28;20143;-61
2021/09/29 00:45:55;;;;;;;11.85;5.30;;;;;;;;;;4912206;28;20133;-60
2021/09/29 00:48:28;;;;;;;12.57;5.05;;;;;;;;;;4926670;28;20038;-61
2021/09/29 00:50:56;;;;;;;12.55;5.53;;;;;;;;;;4964418;28;20043;-61
2021/09/29 00:53:24;;;;;;;9.00;4.60;;;;;;;;;;4960841;28;20762;-62
2021/09/29 00:55:50;;;;;;;8.63;4.35;;;;;;;;;;4955012;28;20125;-61
2021/09/29 00:58:15;;;;;;;8.38;4.55;;;;;;;;;;4945165;28;20116;-60
2021/09/29 01:00:43;;;;;;;12.32;5.00;;;;;;;;;;4964810;28;20046;-60
2021/09/29 01:03:11;;;;;;;14.07;4.68;;;;;;;;;;4927829;28;20086;-60
2021/09/29 01:05:38;;;;;;;15.35;4.65;;;;;;;;;;4957188;28;20077;-60
2021/09/29 01:08:10;;;;;;;13.05;5.50;;;;;;;;;;4958100;28;20670;-59
2021/09/29 01:10:39;;;;;;;14.05;4.75;;;;;;;;;;4942255;28;20026;-62
2021/09/29 01:13:17;;;;;;;15.02;4.45;;;;;;;;;;4956405;28;21056;-61
2021/09/29 01:15:54;;;;;;;17.45;4.28;;;;;;;;;;4958022;28;20030;-60
2021/09/29 01:18:22;;;;;;;9.02;4.30;;;;;;;;;;4935273;28;20388;-61
2021/09/29 01:20:56;;;;;;;13.35;4.28;;;;;;;;;;4937520;28;20122;-61
2021/09/29 01:23:27;;;;;;;17.25;4.45;;;;;;;;;;4965184;28;20026;-61
2021/09/29 01:26:13;;;;;;;12.05;4.22;;;;;;;;;;4962436;28;20053;-61
2021/09/29 01:28:41;;;;;;;8.15;3.72;;;;;;;;;;4965655;28;20046;-61
2021/09/29 01:31:07;;;;;;;13.00;3.72;;;;;;;;;;4948977;28;21946;-61
2021/09/29 01:33:38;;;;;;;10.15;4.30;;;;;;;;;;4929289;28;20034;-62
2021/09/29 01:36:03;;;;;;;16.38;3.83;;;;;;;;;;4958360;28;20156;-61
2021/09/29 01:38:38;;;;;;;14.48;4.32;;;;;;;;;;4958758;28;20031;-60
2021/09/29 01:41:03;;;;;;;11.82;3.75;;;;;;;;;;4947803;28;20035;-60
2021/09/29 01:43:31;;;;;;;10.68;4.65;;;;;;;;;;4950245;28;20826;-60
2021/09/29 01:46:00;;;;;;;14.68;4.53;;;;;;;;;;4957626;28;20096;-60
2021/09/29 01:48:27;;;;;;;8.82;3.65;;;;;;;;;;4948698;28;20077;-62
2021/09/29 01:50:57;;;;;;;21.52;4.93;;;;;;;;;;4929339;28;20038;-61
2021/09/29 01:53:24;;;;;;;10.77;3.78;;;;;;;;;;4929351;28;20025;-61
2021/09/29 01:55:54;;;;;;;9.63;4.28;;;;;;;;;;4948015;28;20046;-61
2021/09/29 01:58:22;;;;;;;15.35;5.45;;;;;;;;;;4949999;28;20038;-61
2021/09/29 02:00:50;;;;;;;11.27;5.05;;;;;;;;;;4942500;28;20022;-60
2021/09/29 02:03:20;;;;;;;8.20;4.32;;;;;;;;;;4942672;28;20502;-60
2021/09/29 02:05:51;;;;;;;13.82;4.53;;;;;;;;;;4958700;28;20038;-61
2021/09/29 02:08:19;;;;;;;11.45;4.55;;;;;;;;;;4925841;28;20026;-62
2021/09/29 02:10:44;;;;;;;11.40;4.45;;;;;;;;;;4957667;28;20061;-60
2021/09/29 02:13:12;;;;;;;10.35;4.63;;;;;;;;;;4941648;28;20030;-61
2021/09/29 02:15:40;;;;;;;10.48;4.75;;;;;;;;;;4942520;28;20364;-61
2021/09/29 02:18:11;;;;;;;10.45;4.63;;;;;;;;;;4914161;28;20034;-61
2021/09/29 02:20:41;;;;;;;11.30;4.97;;;;;;;;;;4949428;28;20449;-62
2021/09/29 02:23:09;;;;;;;13.48;5.00;;;;;;;;;;4942506;28;20494;-60
2021/09/29 02:25:40;;;;;;;12.80;4.50;;;;;;;;;;4977065;28;20021;-61
2021/09/29 02:28:12;;;;;;;9.95;4.68;;;;;;;;;;4962117;28;20077;-60
2021/09/29 02:30:38;;;;;;;13.45;4.40;;;;;;;;;;4929264;28;22009;-60
2021/09/29 02:33:06;;;;;;;14.32;4.47;;;;;;;;;;4947417;28;20038;-61
2021/09/29 02:35:34;;;;;;;7.20;4.65;;;;;;;;;;4964727;28;20054;-61
2021/09/29 02:37:59;;;;;;;14.13;4.32;;;;;;;;;;4955871;28;20049;-61
2021/09/29 02:40:30;;;;;;;15.73;5.45;;;;;;;;;;4981557;28;21432;-60
2021/09/29 02:42:58;;;;;;;10.68;4.78;;;;;;;;;;4961163;28;20952;-60
2021/09/29 02:45:23;;;;;;;10.82;3.90;;;;;;;;;;4924811;28;20042;-61
2021/09/29 02:47:51;;;;;;;7.93;4.10;;;;;;;;;;4940841;28;20045;-59
2021/09/29 02:50:19;;;;;;;11.93;4.90;;;;;;;;;;4924236;28;20038;-61
2021/09/29 02:52:47;;;;;;;18.65;5.05;;;;;;;;;;4956213;28;20108;-60
2021/09/29 02:55:12;;;;;;;12.00;4.68;;;;;;;;;;4940977;28;22032;-59
2021/09/29 02:57:37;;;;;;;13.07;5.55;;;;;;;;;;4920739;28;20042;-61
2021/09/29 03:00:05;;;;;;;19.15;5.60;;;;;;;;;;4929838;28;20084;-61
2021/09/29 03:02:31;;;;;;;21.45;5.22;;;;;;;;;;4957697;28;20034;-61
2021/09/29 03:04:59;;;;;;;14.20;5.15;;;;;;;;;;4948657;28;20035;-61
2021/09/29 03:07:29;;;;;;;17.02;5.55;;;;;;;;;;4950564;28;20034;-60
2021/09/29 03:09:58;;;;;;;21.73;6.15;;;;;;;;;;4940140;28;20674;-61
2021/09/29 03:12:25;;;;;;;17.25;5.50;;;;;;;;;;4938893;28;20074;-60
2021/09/29 03:14:53;;;;;;;12.25;5.75;;;;;;;;;;4922089;28;20091;-60
2021/09/29 03:17:19;;;;;;;14.07;5.88;;;;;;;;;;4941189;28;20510;-61
2021/09/29 03:19:47;;;;;;;13.15;5.57;;;;;;;;;;4941357;28;20031;-61
2021/09/29 03:22:12;;;;;;;12.23;5.65;;;;;;;;;;4955965;28;20034;-60
2021/09/29 03:24:40;;;;;;;12.48;5.38;;;;;;;;;;4939796;28;20057;-60
2021/09/29 03:27:08;;;;;;;13.88;5.13;;;;;;;;;;4939402;28;20056;-62
2021/09/29 03:29:34;;;;;;;14.68;5.88;;;;;;;;;;4925476;28;20232;-61
2021/09/29 03:32:02;;;;;;;13.30;5.00;;;;;;;;;;4945282;28;20629;-61
2021/09/29 03:34:30;;;;;;;12.13;5.43;;;;;;;;;;4934835;28;20058;-60
2021/09/29 03:36:58;;;;;;;13.20;5.47;;;;;;;;;;4958164;28;20068;-61
2021/09/29 03:39:26;;;;;;;16.98;6.18;;;;;;;;;;4943533;28;20126;-61
2021/09/29 03:41:51;;;;;;;9.68;6.07;;;;;;;;;;4928131;28;20030;-59
2021/09/29 03:44:19;;;;;;;13.98;6.38;;;;;;;;;;4950109;28;20141;-60
2021/09/29 03:46:47;;;;;;;15.93;6.60;;;;;;;;;;4951584;28;20040;-61
2021/09/29 03:49:15;;;;;;;9.02;5.63;;;;;;;;;;4951598;28;20035;-60
2021/09/29 03:51:41;;;;;;;15.02;6.03;;;;;;;;;;4940498;28;20049;-60
2021/09/29 03:54:06;;;;;;;11.77;6.13;;;;;;;;;;4928593;28;20035;-62
2021/09/29 03:56:34;;;;;;;19.13;6.13;;;;;;;;;;4948752;28;20182;-60
2021/09/29 03:59:02;;;;;;;11.52;5.70;;;;;;;;;;4944257;28;20023;-60
2021/09/29 04:01:33;;;;;;;23.77;6.30;;;;;;;;;;4947319;28;20156;-62
2021/09/29 04:03:58;;;;;;;13.82;6.22;;;;;;;;;;4959261;28;20034;-60
2021/09/29 04:06:28;;;;;;;12.55;6.18;;;;;;;;;;4943094;28;21335;-60
2021/09/29 04:08:57;;;;;;;14.57;6.35;;;;;;;;;;4951303;28;20038;-62
2021/09/29 04:11:22;;;;;;;14.27;5.35;;;;;;;;;;4948980;28;20035;-60
2021/09/29 04:13:48;;;;;;;15.38;6.80;;;;;;;;;;4927823;28;20093;-62
2021/09/29 04:16:13;;;;;;;20.98;6.55;;;;;;;;;;4957859;28;20035;-61
2021/09/29 04:18:39;;;;;;;13.90;6.72;;;;;;;;;;4965204;28;20038;-60
2021/09/29 04:21:07;;;;;;;16.70;6.25;;;;;;;;;;4956168;28;20484;-60
2021/09/29 04:23:35;;;;;;;16.15;6.40;;;;;;;;;;4963036;28;20037;-61
2021/09/29 04:26:02;;;;;;;19.45;6.80;;;;;;;;;;4925619;28;20030;-61
2021/09/29 04:28:32;;;;;;;12.65;6.47;;;;;;;;;;4950177;28;20026;-62
2021/09/29 04:31:01;;;;;;;17.38;7.30;;;;;;;;;;4926541;28;20036;-61
2021/09/29 04:33:32;;;;;;;11.68;6.45;;;;;;;;;;4941431;28;20038;-60
2021/09/29 04:35:58;;;;;;;18.17;7.57;;;;;;;;;;4963833;28;21926;-61
2021/09/29 04:38:23;;;;;;;16.55;6.00;;;;;;;;;;4926627;28;20041;-60
2021/09/29 04:40:51;;;;;;;11.90;6.20;;;;;;;;;;4928164;28;20660;-60
2021/09/29 04:43:19;;;;;;;16.67;6.80;;;;;;;;;;4925199;28;20148;-61
2021/09/29 04:45:47;;;;;;;18.00;7.28;;;;;;;;;;4927769;28;20058;-61
2021/09/29 04:48:13;;;;;;;16.20;7.03;;;;;;;;;;4942941;28;20112;-61
2021/09/29 04:50:39;;;;;;;17.60;7.00;;;;;;;;;;4968056;28;20474;-60
2021/09/29 04:53:07;;;;;;;14.80;5.97;;;;;;;;;;4943329;28;20088;-60
2021/09/29 04:55:35;;;;;;;13.88;6.38;;;;;;;;;;4941727;28;20247;-60
2021/09/29 04:58:04;;;;;;;21.95;7.55;;;;;;;;;;4965556;28;20084;-60
2021/09/29 05:00:31;;;;;;;14.35;6.57;;;;;;;;;;4966394;28;20084;-60
2021/09/29 05:03:01;;;;;;;17.73;6.97;;;;;;;;;;4959773;28;20019;-60
2021/09/29 05:05:27;;;;;;;17.40;6.93;;;;;;;;;;4951540;28;20046;-64
2021/09/29 05:07:59;;;;;;;16.10;6.95;;;;;;;;;;4953271;28;20023;-60
2021/09/29 05:10:39;;;;;;;21.33;6.80;;;;;;;;;;4953019;28;20038;-61
2021/09/29 05:13:11;;;;;;;13.98;6.78;;;;;;;;;;4941645;28;20029;-61
2021/09/29 05:15:36;;;;;;;20.30;7.10;;;;;;;;;;4960655;28;20120;-61
2021/09/29 05:18:04;;;;;;;14.40;6.00;;;;;;;;;;4949478;28;21952;-60
2021/09/29 05:20:32;;;;;;;17.38;6.22;;;;;;;;;;4965945;28;21011;-60
2021/09/29 05:22:58;;;;;;;20.63;6.60;;;;;;;;;;4927034;28;20105;-59
2021/09/29 05:25:26;;;;;;;9.65;5.75;;;;;;;;;;4925485;28;20093;-61
2021/09/29 05:27:54;;;;;;;18.17;6.43;;;;;;;;;;4914360;28;20023;-60
2021/09/29 05:30:22;;;;;;;13.32;6.75;;;;;;;;;;4944287;28;20168;-60
2021/09/29 05:32:50;;;;;;;20.60;6.70;;;;;;;;;;4933719;28;20034;-61
2021/09/29 05:35:16;;;;;;;17.45;6.90;;;;;;;;;;4926631;28;20089;-62
2021/09/29 05:37:41;;;;;;;13.23;7.75;;;;;;;;;;4919980;28;20994;-62
2021/09/29 05:40:07;;;;;;;15.60;6.45;;;;;;;;;;4942771;28;20041;-61
2021/09/29 05:42:33;;;;;;;17.10;6.07;;;;;;;;;;4953865;28;21014;-61
2021/09/29 05:45:00;;;;;;;13.15;6.68;;;;;;;;;;4943112;28;20034;-60
2021/09/29 05:47:26;;;;;;;11.93;6.45;;;;;;;;;;4941280;28;20097;-61
2021/09/29 05:49:54;;;;;;;16.52;6.93;;;;;;;;;;4930005;28;20109;-61
2021/09/29 05:52:19;;;;;;;11.32;7.05;;;;;;;;;;4952539;28;20054;-61
2021/09/29 05:54:45;;;;;;;14.57;6.30;;;;;;;;;;4942927;28;20038;-59
2021/09/29 05:57:16;;;;;;;26.63;6.95;;;;;;;;;;4949367;28;20118;-60
2021/09/29 05:59:46;;;;;;;27.33;6.95;;;;;;;;;;4932821;28;20169;-60
2021/09/29 06:02:13;;;;;;;15.82;5.82;;;;;;;;;;4942160;28;20033;-59
2021/09/29 06:04:41;;;;;;;20.02;6.10;;;;;;;;;;4957787;28;20038;-61
2021/09/29 06:07:08;;;;;;;18.92;5.72;;;;;;;;;;4927285;28;20042;-60
2021/09/29 06:09:40;;;;;;;18.90;6.45;;;;;;;;;;4976180;28;20161;-60
2021/09/29 06:12:12;;;;;;;18.60;5.90;;;;;;;;;;4938356;28;20045;-60
2021/09/29 06:14:49;;;;;;;14.55;6.38;;;;;;;;;;4958996;28;20073;-60
2021/09/29 06:17:38;;;;;;;13.50;6.22;;;;;;;;;;4966735;28;20046;-60
2021/09/29 06:20:06;;;;;;;15.32;5.70;;;;;;;;;;4960217;28;20157;-58
2021/09/29 06:22:34;;;;;;;16.90;5.47;;;;;;;;;;4926286;28;20048;-62
2021/09/29 06:25:02;;;;;;;11.77;5.95;;;;;;;;;;4940740;28;20038;-61
2021/09/29 06:27:27;;;;;;;14.13;5.68;;;;;;;;;;4930914;28;20478;-61
2021/09/29 06:29:53;;;;;;;15.65;5.32;;;;;;;;;;4942807;28;20042;-61
2021/09/29 06:32:37;;;;;;;14.18;4.75;;;;;;;;;;4966372;28;20082;-60
2021/09/29 06:35:02;;;;;;;13.05;5.35;;;;;;;;;;4943913;28;20050;-60
2021/09/29 06:37:38;;;;;;;15.60;4.85;;;;;;;;;;4958285;28;20038;-60
2021/09/29 06:40:05;;;;;;;14.43;4.35;;;;;;;;;;4950287;28;20871;-63
2021/09/29 06:42:35;;;;;;;10.07;4.32;;;;;;;;;;4965158;28;20096;-62
2021/09/29 06:45:01;;;;;;;22.85;5.47;;;;;;;;;;4966922;28;20089;-62
2021/09/29 06:47:29;;;;;;;11.90;4.97;;;;;;;;;;4943115;28;20021;-62
2021/09/29 06:49:59;;;;;;;9.68;4.57;;;;;;;;;;4948200;28;20026;-61
2021/09/29 06:52:27;;;;;;;13.73;5.22;;;;;;;;;;4950459;28;21037;-61
2021/09/29 06:54:57;;;;;;;19.35;5.13;;;;;;;;;;4928809;28;20049;-59
2021/09/29 06:57:25;;;;;;;14.75;5.25;;;;;;;;;;4955922;28;20532;-60
2021/09/29 06:59:51;;;;;;;14.35;4.30;;;;;;;;;;4956982;28;20971;-60
2021/09/29 07:02:20;;;;;;;11.90;4.43;;;;;;;;;;4957968;28;20035;-60
2021/09/29 07:04:48;;;;;;;13.73;4.20;;;;;;;;;;4926937;28;20030;-60
2021/09/29 07:07:18;;;;;;;11.43;4.35;;;;;;;;;;4922155;28;20038;-61
2021/09/29 07:09:43;;;;;;;9.40;4.07;;;;;;;;;;4961430;28;20459;-60
2021/09/29 07:12:09;;;;;;;7.03;3.92;;;;;;;;;;4926468;28;20034;-61
2021/09/29 07:14:40;;;;;;;7.57;4.32;;;;;;;;;;4944298;28;20129;-61
2021/09/29 07:17:08;;;;;;;9.55;3.60;;;;;;;;;;4942396;28;20043;-62
2021/09/29 07:19:38;;;;;;;11.07;3.78;;;;;;;;;;4932431;28;20026;-61
2021/09/29 07:22:06;;;;;;;10.98;4.40;;;;;;;;;;4960590;28;20967;-62
2021/09/29 07:24:34;;;;;;;8.32;3.50;;;;;;;;;;4931727;28;20030;-62
2021/09/29 07:27:01;;;;;;;15.32;4.30;;;;;;;;;;4961453;28;20076;-62
2021/09/29 07:29:34;;;;;;;9.45;3.53;;;;;;;;;;4943651;28;20030;-60
2021/09/29 07:32:02;;;;;;;8.20;3.85;;;;;;;;;;4945580;28;20164;-60
2021/09/29 07:34:27;;;;;;;28.05;4.28;;;;;;;;;;4962208;28;20145;-58
2021/09/29 07:36:55;;;;;;;7.57;4.03;;;;;;;;;;4961441;28;20521;-58
2021/09/29 07:39:23;;;;;;;9.73;4.10;;;;;;;;;;4945235;28;20160;-57
2021/09/29 07:41:52;;;;;;;7.85;4.03;;;;;;;;;;4957602;28;20924;-58
2021/09/29 07:44:19;;;;;;;17.13;4.35;;;;;;;;;;4934278;28;20723;-58
2021/09/29 07:46:47;;;;;;;10.63;4.80;;;;;;;;;;4943216;28;20038;-58
2021/09/29 07:49:16;;;;;;;20.35;3.92;;;;;;;;;;4913104;28;20438;-58
2021/09/29 07:51:46;;;;;;;11.60;4.03;;;;;;;;;;4970270;28;20110;-57
2021/09/29 07:54:11;;;;;;;14.30;5.22;;;;;;;;;;4943146;28;20038;-58
2021/09/29 07:56:44;;;;;;;10.55;4.38;;;;;;;;;;4963286;28;20489;-58
2021/09/29 07:59:09;;;;;;;10.50;4.47;;;;;;;;;;4979771;28;20070;-58
2021/09/29 08:01:34;;;;;;;6.22;3.58;;;;;;;;;;4944821;28;20034;-57
2021/09/29 08:04:00;;;;;;;8.38;4.35;;;;;;;;;;4969080;28;20055;-58
2021/09/29 08:06:29;;;;;;;13.95;4.07;;;;;;;;;;4954872;28;20034;-58
2021/09/29 08:08:59;;;;;;;14.18;3.88;;;;;;;;;;4928541;28;20594;-58
2021/09/29 08:11:27;;;;;;;14.70;4.38;;;;;;;;;;4938748;28;20034;-59
2021/09/29 08:13:52;;;;;;;15.23;3.95;;;;;;;;;;4942390;28;20105;-58
2021/09/29 08:16:22;;;;;;;8.80;4.03;;;;;;;;;;4943375;28;20034;-58
2021/09/29 08:18:48;;;;;;;10.73;4.03;;;;;;;;;;4945524;28;20042;-57
2021/09/29 08:21:22;;;;;;;8.32;3.92;;;;;;;;;;4954415;28;20037;-59
2021/09/29 08:23:53;;;;;;;10.13;3.60;;;;;;;;;;4952023;28;20030;-59
2021/09/29 08:29:27;;;;;;;14.05;3.97;;;;;;;;;;4968718;28;20065;-59
2021/09/29 08:34:48;;;;;;;9.83;3.80;;;;;;;;;;4950581;28;20160;-60
2021/09/29 08:42:30;;;;;;;10.75;3.67;;;;;;;;;;4968308;28;20623;-59
2021/09/29 08:45:25;;;;;;;5.15;3.40;;;;;;;;;;4926920;28;20080;-62
2021/09/29 08:47:58;;;;;;;8.75;3.08;;;;;;;;;;4944771;28;20039;-58
2021/09/29 08:56:19;;;;;;;13.68;4.50;;;;;;;;;;4951764;28;20045;-60
2021/09/29 09:15:20;;;;;;;8.57;4.20;;;;;;;;;;4938145;28;20047;-59
2021/09/29 09:17:44;;;;;;;13.95;4.15;;;;;;;;;;4952617;28;20046;-59
2021/09/29 09:20:19;;;;;;;14.30;4.45;;;;;;;;;;4953737;28;20104;-58
2021/09/29 09:22:49;;;;;;;17.15;4.40;;;;;;;;;;4941691;28;20018;-58
2021/09/29 09:25:16;;;;;;;8.35;3.95;;;;;;;;;;4942757;28;20161;-58
2021/09/29 09:27:46;;;;;;;8.88;4.30;;;;;;;;;;4926539;28;20034;-59
2021/09/29 09:30:23;;;;;;;7.50;3.92;;;;;;;;;;4959846;28;20031;-58
2021/09/29 09:32:54;;;;;;;7.72;4.25;;;;;;;;;;4957948;28;20634;-58
2021/09/29 09:35:23;;;;;;;15.90;4.95;;;;;;;;;;4964797;28;20096;-58
2021/09/29 09:37:55;;;;;;;9.55;4.43;;;;;;;;;;4957655;28;20423;-58
2021/09/29 09:40:22;;;;;;;8.30;4.05;;;;;;;;;;4967386;28;20049;-58
2021/09/29 09:42:50;;;;;;;12.43;4.75;;;;;;;;;;4965046;28;20473;-58
2021/09/29 09:45:18;;;;;;;8.82;4.32;;;;;;;;;;4958680;28;20031;-58
2021/09/29 09:47:47;;;;;;;7.63;4.22;;;;;;;;;;4951625;28;20045;-58
2021/09/29 09:50:23;;;;;;;7.43;4.85;;;;;;;;;;4959544;28;20180;-58
2021/09/29 09:52:52;;;;;;;9.65;4.97;;;;;;;;;;4959777;28;20100;-57
2021/09/29 09:55:22;;;;;;;11.35;4.57;;;;;;;;;;4968304;28;20079;-58
2021/09/29 09:57:59;;;;;;;10.90;4.57;;;;;;;;;;4949495;28;20033;-58
2021/09/29 10:00:27;;;;;;;11.50;4.72;;;;;;;;;;4942627;28;20038;-57
2021/09/29 10:02:59;;;;;;;10.13;4.57;;;;;;;;;;4941681;28;20038;-57
2021/09/29 10:05:26;;;;;;;9.77;4.57;;;;;;;;;;4933550;28;20041;-58
2021/09/29 10:07:54;;;;;;;17.90;5.20;;;;;;;;;;4943162;28;20026;-58
2021/09/29 10:24:06;;;;;;;7.85;4.43;;;;;;;;;;4952511;28;20648;-60
2021/09/29 10:26:34;;;;;;;6.35;3.88;;;;;;;;;;4964474;28;20470;-61
2021/09/29 10:29:04;;;;;;;9.85;4.18;;;;;;;;;;4942057;28;20168;-61
2021/09/29 10:31:40;;;;;;;6.30;4.22;;;;;;;;;;4958897;28;20228;-61
2021/09/29 10:48:03;;;;;;;7.82;3.83;;;;;;;;;;4968996;28;20062;-61
2021/09/29 11:30:18;;;;;;;1.08;0.60;;;;;;;;;;4969440;28;20057;-58
2021/09/29 11:32:23;;;;;;;1.33;0.60;;;;;;;;;;4958496;28;20109;-58
2021/09/29 11:34:49;;;;;;;8.68;0.57;;;;;;;;;;4944104;28;20497;-58
2021/09/29 11:37:40;;;;;;;14.25;0.80;;;;;;;;;;4954903;28;21107;-58
2021/09/29 12:10:26;;;;;;;1.50;0.40;;;;;;;;;;4970088;28;20706;-58
2021/09/29 12:12:55;;;;;;;0.10;0.08;;;;;;;;;;4949747;28;20120;-58
2021/09/29 12:15:23;;;;;;;0.57;0.30;;;;;;;;;;4928784;28;20759;-59
2021/09/29 12:17:51;;;;;;;0.88;0.38;;;;;;;;;;4942953;28;20030;-59
2021/09/29 12:20:24;;;;;;;2.00;0.22;;;;;;;;;;4944558;28;20113;-57
2021/09/29 12:22:55;;;;;;;0.38;0.20;;;;;;;;;;4933076;28;20030;-59
2021/09/29 12:25:34;;;;;;;2.40;0.50;;;;;;;;;;4969484;28;20160;-58
2021/09/29 12:36:25;;;;;;;3.25;0.60;;;;;;;;;;4945083;28;20058;-58
2021/09/29 12:38:52;;;;;;;3.30;0.50;;;;;;;;;;4965165;28;20038;-58
2021/09/29 12:41:22;;;;;;;1.85;0.45;;;;;;;;;;4923089;28;20080;-58
2021/09/29 12:43:47;;;;;;;11.55;0.85;;;;;;;;;;4940314;28;20418;-60
2021/09/29 12:46:19;;;;;;;1.63;0.50;;;;;;;;;;4939784;28;20079;-59
2021/09/29 12:48:48;;;;;;;6.60;0.75;;;;;;;;;;4956844;28;20027;-58
2021/09/29 12:51:14;;;;;;;3.35;0.38;;;;;;;;;;4925236;28;22080;-58
2021/09/29 12:56:17;;;;;;;3.05;0.40;;;;;;;;;;4948308;28;20567;-59
2021/09/29 12:58:46;;;;;;;10.90;0.63;;;;;;;;;;4925323;28;20173;-58
2021/09/29 13:01:15;;;;;;;3.45;0.60;;;;;;;;;;4955653;28;20041;-57
2021/09/29 13:03:41;;;;;;;2.58;0.77;;;;;;;;;;4955979;28;20680;-59
2021/09/29 13:06:07;;;;;;;3.47;0.40;;;;;;;;;;4938630;28;20027;-58
2021/09/29 13:08:35;;;;;;;6.63;0.32;;;;;;;;;;4940611;28;20061;-59
2021/09/29 13:11:03;;;;;;;3.13;0.50;;;;;;;;;;4915521;28;20035;-58
2021/09/29 13:13:34;;;;;;;2.55;0.40;;;;;;;;;;4941165;28;20118;-59
2021/09/29 13:16:05;;;;;;;4.45;0.57;;;;;;;;;;4956866;28;20516;-59
2021/09/29 13:21:40;;;;;;;3.10;0.90;;;;;;;;;;4918955;28;20042;-59
2021/09/29 13:35:13;;;;;;;4.10;0.50;;;;;;;;;;4945827;28;20051;-58
2021/09/29 13:37:41;;;;;;;0.40;0.20;;;;;;;;;;4953373;28;20144;-58
2021/09/29 13:40:07;;;;;;;7.40;0.52;;;;;;;;;;4925935;28;20209;-59
2021/09/29 13:42:32;;;;;;;2.53;0.30;;;;;;;;;;4954462;28;20043;-60
2021/09/29 13:45:06;;;;;;;4.85;0.60;;;;;;;;;;4939130;28;20843;-60
2021/09/29 13:47:31;;;;;;;4.13;0.73;;;;;;;;;;4924554;28;20165;-59
2021/09/29 13:50:01;;;;;;;3.55;0.60;;;;;;;;;;4923461;28;20045;-60
2021/09/29 13:52:27;;;;;;;7.28;0.90;;;;;;;;;;4911742;28;20047;-58
2021/09/29 13:54:58;;;;;;;6.35;0.82;;;;;;;;;;4946832;28;20112;-58
2021/09/29 14:30:19;;;;;;;4.20;1.05;;;;;;;;;;4940772;28;20039;-59
2021/09/29 14:33:00;;;;;;;10.45;0.55;;;;;;;;;;4944958;28;20050;-60
2021/09/29 14:35:31;;;;;;;3.15;0.43;;;;;;;;;;4915882;28;20046;-59
2021/09/29 14:38:02;;;;;;;0.40;0.20;;;;;;;;;;4962376;28;20051;-59
2021/09/29 14:40:49;;;;;;;15.65;0.90;;;;;;;;;;4948662;28;20057;-60
2021/09/29 14:43:20;;;;;;;5.97;0.77;;;;;;;;;;4939304;28;20034;-59
2021/09/29 14:45:46;;;;;;;5.00;0.90;;;;;;;;;;4962922;28;20042;-59
2021/09/29 14:48:11;;;;;;;2.05;0.50;;;;;;;;;;4917429;28;20022;-59
2021/09/29 14:50:37;;;;;;;4.80;0.73;;;;;;;;;;4932357;28;20031;-59
2021/09/29 14:53:05;;;;;;;1.40;0.50;;;;;;;;;;4962093;28;20039;-60
2021/09/29 14:55:32;;;;;;;1.50;0.32;;;;;;;;;;4939392;28;20026;-60
2021/09/29 14:58:00;;;;;;;6.00;0.88;;;;;;;;;;4936972;28;20050;-58
2021/09/29 15:00:30;;;;;;;5.60;0.90;;;;;;;;;;4905878;28;20050;-60
2021/09/29 15:02:56;;;;;;;7.97;0.57;;;;;;;;;;4923295;28;20161;-60
2021/09/29 15:05:27;;;;;;;4.88;1.02;;;;;;;;;;4922976;28;20074;-59
2021/09/29 15:07:58;;;;;;;4.90;0.63;;;;;;;;;;4953492;28;20031;-60
2021/09/29 15:10:26;;;;;;;5.93;1.48;;;;;;;;;;4935936;28;20390;-59
2021/09/29 15:12:59;;;;;;;2.45;0.65;;;;;;;;;;4937578;28;20023;-59
2021/09/29 15:15:28;;;;;;;4.03;0.60;;;;;;;;;;4935703;28;20564;-58
2021/09/29 15:23:17;;;;;;;5.88;0.65;;;;;;;;;;4933052;28;20031;-58
2021/09/29 15:47:56;;;;;;;11.63;1.05;;;;;;;;;;4952032;28;20045;-58
2021/09/29 15:51:05;;;;;;;12.82;0.82;;;;;;;;;;4956805;28;20054;-57
2021/09/29 16:01:02;;;;;;;15.93;0.98;;;;;;;;;;4934336;28;20102;-58
2021/09/29 16:06:26;;;;;;;15.23;1.38;;;;;;;;;;4964675;28;20492;-60
2021/09/29 16:30:25;;;;;;;6.90;0.65;;;;;;;;;;4963060;28;20027;-60
2021/09/29 16:35:30;;;;;;;12.07;1.00;;;;;;;;;;4955013;28;20050;-61
2021/09/29 16:38:00;;;;;;;7.47;0.70;;;;;;;;;;4957821;28;20030;-59
2021/09/29 16:40:28;;;;;;;10.75;0.88;;;;;;;;;;4920067;28;20489;-58
2021/09/29 16:42:57;;;;;;;17.67;1.20;;;;;;;;;;4931791;28;21061;-58
2021/09/29 16:45:26;;;;;;;9.18;0.88;;;;;;;;;;4919222;28;20058;-60
2021/09/29 16:47:56;;;;;;;7.75;0.95;;;;;;;;;;4951371;28;20027;-59
2021/09/29 16:50:30;;;;;;;16.67;1.30;;;;;;;;;;4911043;28;20058;-59
2021/09/29 16:52:57;;;;;;;;;;;;;;;;;;4950528;28;20035;-58
2021/09/29 16:55:30;;;;;;;6.75;1.00;;;;;;;;;;4966422;28;20009;-58
2021/09/29 17:00:54;;;;;;;10.13;1.00;;;;;;;;;;4960648;28;20094;-57
2021/09/29 17:03:22;;;;;;;18.00;1.20;;;;;;;;;;4942248;28;20317;-57
2021/09/29 17:05:51;;;;;;;13.60;1.08;;;;;;;;;;4965525;28;20039;-58
2021/09/29 17:08:19;;;;;;;13.50;0.95;;;;;;;;;;4951631;28;20424;-58
2021/09/29 17:10:50;;;;;;;10.63;0.95;;;;;;;;;;4934864;28;20023;-58
2021/09/29 17:13:18;;;;;;;4.55;0.80;;;;;;;;;;4955552;28;20046;-57
2021/09/29 17:15:44;;;;;;;21.70;1.35;;;;;;;;;;4934473;28;20041;-57
2021/09/29 17:18:11;;;;;;;15.93;1.35;;;;;;;;;;4941735;28;20034;-58
2021/09/29 17:20:37;;;;;;;4.68;1.63;;;;;;;;;;4941646;28;20030;-58
2021/09/29 17:23:02;;;;;;;11.00;1.27;;;;;;;;;;4939889;28;20042;-57
2021/09/29 17:25:32;;;;;;;6.95;1.00;;;;;;;;;;4935593;28;20022;-58
2021/09/29 17:28:00;;;;;;;10.02;1.00;;;;;;;;;;4932083;28;20051;-59
2021/09/29 17:30:29;;;;;;;12.30;1.27;;;;;;;;;;4950141;28;20034;-59
2021/09/29 17:39:04;;;;;;;5.93;1.45;;;;;;;;;;4947976;28;20069;-58
2021/09/29 17:54:19;;;;;;;3.97;1.15;;;;;;;;;;4933409;28;20420;-58
2021/09/29 17:56:52;;;;;;;10.77;1.50;;;;;;;;;;4920937;28;20030;-61
2021/09/29 17:59:23;;;;;;;8.55;1.52;;;;;;;;;;4938553;28;20055;-58
2021/09/29 18:01:57;;;;;;;6.63;1.05;;;;;;;;;;4906817;28;20035;-59
2021/09/29 18:04:25;;;;;;;2.22;1.05;;;;;;;;;;4939015;28;20034;-58
2021/09/29 18:09:32;;;;;;;16.40;1.45;;;;;;;;;;4940090;28;20181;-57
2021/09/29 18:12:00;;;;;;;10.82;1.75;;;;;;;;;;4937659;28;20536;-58
2021/09/29 18:14:26;;;;;;;11.38;1.45;;;;;;;;;;4955058;28;20038;-58
2021/09/29 18:16:52;;;;;;;16.13;1.58;;;;;;;;;;4907002;28;20035;-59
2021/09/29 18:19:19;;;;;;;8.73;1.38;;;;;;;;;;4938568;28;20045;-58
2021/09/29 18:21:48;;;;;;;9.13;1.38;;;;;;;;;;4921871;28;20042;-59
2021/09/29 18:26:51;;;;;;;7.45;1.20;;;;;;;;;;5244108;23;20058;-59
2021/09/29 18:29:20;;;;;;;14.98;1.77;;;;;;;;;;4964454;28;20026;-59
2021/09/29 18:31:47;;;;;;;3.83;1.30;;;;;;;;;;4946125;28;20562;-59
2021/09/29 18:34:13;;;;;;;3.42;0.95;;;;;;;;;;4966060;28;20042;-58
2021/09/29 18:36:41;;;;;;;2.50;1.00;;;;;;;;;;4915063;28;20042;-59
2021/09/29 18:39:07;;;;;;;8.60;1.27;;;;;;;;;;4949465;28;20350;-60
2021/09/29 18:41:36;;;;;;;15.52;1.45;;;;;;;;;;4953752;28;20669;-58
2021/09/29 18:44:14;;;;;;;2.67;0.77;;;;;;;;;;4946385;28;22134;-60
2021/09/29 18:46:40;;;;;;;3.90;1.10;;;;;;;;;;4948559;28;20108;-59
2021/09/29 18:49:11;;;;;;;2.67;1.15;;;;;;;;;;4950057;28;20040;-59
2021/09/29 18:51:51;;;;;;;4.88;1.23;;;;;;;;;;4929783;28;20817;-60
2021/09/29 18:54:28;;;;;;;18.13;1.80;;;;;;;;;;4950323;28;20026;-61
2021/09/29 19:07:43;;;;;;;5.07;1.40;;;;;;;;;;4940388;28;20129;-59
2021/09/29 19:10:11;;;;;;;8.48;1.20;;;;;;;;;;4936638;28;20042;-59
2021/09/29 19:12:36;;;;;;;6.13;1.23;;;;;;;;;;4927884;28;20845;-60
2021/09/29 19:15:02;;;;;;;10.18;1.48;;;;;;;;;;4955184;28;20045;-60
2021/09/29 19:17:31;;;;;;;3.90;0.80;;;;;;;;;;4967553;28;20046;-60
2021/09/29 19:19:56;;;;;;;6.25;1.42;;;;;;;;;;4937271;28;20044;-60
2021/09/29 19:22:25;;;;;;;4.72;1.35;;;;;;;;;;4952772;28;20375;-59
2021/09/29 19:24:50;;;;;;;8.13;1.23;;;;;;;;;;4966345;28;20045;-60
2021/09/29 19:27:25;;;;;;;4.43;1.20;;;;;;;;;;4936471;28;20046;-61
2021/09/29 19:29:53;;;;;;;6.93;1.27;;;;;;;;;;4951729;28;21594;-62
2021/09/29 19:32:19;;;;;;;7.40;1.63;;;;;;;;;;4950773;28;20026;-60
2021/09/29 19:34:47;;;;;;;12.88;1.55;;;;;;;;;;4938172;28;20035;-60